Time;durP1;ratioP1;P1;durP2;ratioP2;P2;SDS_P1;SDS_P2;PMS_P1;PMS_P2;Temp;Humidity;BMP_temperature;BMP_pressure;BME280_temperature;BME280_humidity;BME280_pressure;Samples;Min_cycle;Max_cycle;Signal;HPM_P1;HPM_P2
2022/04/26 03:38:03;;;;;;;;;32.50;31.25;;;;;11.57;59.14;100981.41;5112439;27;45637;-83
2022/04/26 03:40:28;;;;;;;;;42.00;36.00;;;;;11.49;59.08;100982.00;5094040;27;46932;-83
2022/04/26 03:42:53;;;;;;;;;41.75;35.75;;;;;11.50;59.14;100986.44;5094025;27;45787;-84
2022/04/26 03:45:19;;;;;;;;;37.50;34.50;;;;;11.17;59.16;100937.03;5113475;27;45405;-84
2022/04/26 03:47:44;;;;;;;;;40.50;33.50;;;;;10.92;59.44;100898.44;5094257;27;45785;-84
2022/04/26 03:50:09;;;;;;;;;35.00;32.25;;;;;11.70;59.43;101051.19;5094292;27;47320;-84
2022/04/26 03:52:35;;;;;;;;;35.00;33.00;;;;;11.34;59.25;100988.53;5109679;27;45863;-84
2022/04/26 03:55:04;;;;;;;;;37.75;32.00;;;;;11.35;59.55;100987.69;5072803;27;45878;-83
2022/04/26 03:57:30;;;;;;;;;31.00;30.00;;;;;11.23;59.48;100982.00;5074384;27;45634;-84
2022/04/26 03:59:56;;;;;;;;;41.00;35.75;;;;;11.43;59.83;101018.63;5091687;27;46293;-84
2022/04/26 04:02:22;;;;;;;;;41.50;35.25;;;;;11.26;59.84;100992.63;5089780;27;45666;-84
2022/04/26 04:04:47;;;;;;;;;35.00;33.25;;;;;11.14;59.87;100973.78;5090361;27;45762;-83
2022/04/26 04:07:12;;;;;;;;;38.67;35.00;;;;;11.17;60.18;100976.50;5092103;27;45636;-83
2022/04/26 04:09:38;;;;;;;;;38.33;34.33;;;;;11.30;60.09;101009.41;5089239;27;48132;-83
2022/04/26 04:12:04;;;;;;;;;39.50;35.50;;;;;11.31;60.19;101004.19;5091701;27;45545;-84
2022/04/26 04:14:29;;;;;;;;;39.00;35.25;;;;;11.10;60.05;100977.13;5090783;27;45648;-84
2022/04/26 04:16:56;;;;;;;;;36.67;34.00;;;;;11.06;60.19;100989.25;5090938;27;45396;-84
2022/04/26 04:19:22;;;;;;;;;40.25;33.00;;;;;11.39;60.40;101041.31;5073304;27;48110;-84
2022/04/26 04:21:49;;;;;;;;;47.25;37.75;;;;;11.11;60.10;100998.22;5091290;27;45831;-84
2022/04/26 04:24:15;;;;;;;;;37.50;34.00;;;;;11.13;60.50;101000.00;5093530;27;45375;-84
2022/04/26 04:26:41;;;;;;;;;41.75;36.50;;;;;10.98;60.64;100985.44;5111790;27;45437;-83
2022/04/26 04:29:08;;;;;;;;;41.25;37.25;;;;;11.26;60.61;101034.72;5093857;27;48465;-84
2022/04/26 04:31:33;;;;;;;;;41.00;35.50;;;;;11.14;60.27;101020.22;5093617;27;45867;-83
2022/04/26 04:34:00;;;;;;;;;40.00;36.00;;;;;11.23;60.77;101034.63;5112287;27;45730;-84
2022/04/26 04:36:27;;;;;;;;;48.25;38.25;;;;;11.00;60.54;100999.56;5093926;27;45514;-83
2022/04/26 04:38:52;;;;;;;;;41.75;36.50;;;;;11.31;60.91;101058.56;5111061;27;46623;-83
2022/04/26 04:41:18;;;;;;;;;41.25;35.50;;;;;11.10;61.12;101037.63;5093415;27;45562;-83
2022/04/26 04:43:44;;;;;;;;;38.25;34.25;;;;;11.04;61.00;101026.88;5111888;27;45425;-84
2022/04/26 04:46:10;;;;;;;;;42.75;37.25;;;;;11.00;61.05;101030.25;5111800;27;45484;-83
2022/04/26 04:48:35;;;;;;;;;39.25;35.25;;;;;11.05;60.89;101039.19;5093264;27;47951;-83
2022/04/26 04:51:01;;;;;;;;;38.33;35.33;;;;;10.68;60.85;100973.78;5093453;27;45457;-83
2022/04/26 04:53:26;;;;;;;;;45.00;38.67;;;;;11.16;60.78;101051.00;5092613;27;45550;-84
2022/04/26 04:55:52;;;;;;;;;41.50;34.75;;;;;10.93;61.01;101017.69;5092344;27;45512;-83
2022/04/26 04:58:17;;;;;;;;;41.00;36.25;;;;;11.06;61.12;101047.13;5111969;27;46551;-84
2022/04/26 05:00:42;;;;;;;;;41.33;37.00;;;;;10.78;61.09;101007.47;5087482;27;45855;-83
2022/04/26 05:03:08;;;;;;;;;45.25;39.00;;;;;10.99;61.51;101039.88;5090043;27;45483;-83
2022/04/26 05:05:34;;;;;;;;;50.00;40.25;;;;;10.89;61.15;101015.81;5087804;27;45554;-83
2022/04/26 05:08:00;;;;;;;;;44.25;36.25;;;;;10.88;61.25;101019.25;5093838;27;47078;-83
2022/04/26 05:10:26;;;;;;;;;50.00;38.75;;;;;11.29;61.24;101100.63;5132245;27;45290;-84
2022/04/26 05:12:51;;;;;;;;;48.25;39.00;;;;;11.04;61.15;101058.44;5119890;27;45084;-83
2022/04/26 05:15:17;;;;;;;;;49.00;38.50;;;;;11.23;61.34;101084.59;5111286;27;45310;-84
2022/04/26 05:17:42;;;;;;;;;47.75;38.75;;;;;11.03;61.29;101040.84;5102480;27;45698;-84
2022/04/26 05:20:08;;;;;;;;;50.00;42.00;;;;;11.48;61.55;101098.66;5097564;27;45351;-83
2022/04/26 05:24:53;;;;;;;;;48.00;40.00;;;;;11.34;61.49;101072.72;5092481;27;45483;-84
2022/04/26 05:25:20;;;;;;;;;47.00;38.50;;;;;11.43;61.08;101079.16;5116310;27;45370;-83
2022/04/26 05:27:45;;;;;;;;;51.25;40.25;;;;;11.71;61.29;101123.16;5094242;27;47159;-84
2022/04/26 05:30:12;;;;;;;;;46.33;36.33;;;;;11.53;60.72;101082.19;5114225;27;46488;-83
2022/04/26 05:32:37;;;;;;;;;50.50;41.00;;;;;11.69;60.86;101115.22;5115778;27;45740;-84
2022/04/26 05:35:04;;;;;;;;;49.50;40.00;;;;;11.47;60.85;101086.31;5126290;27;45753;-84
2022/04/26 05:37:31;;;;;;;;;54.25;43.25;;;;;11.34;60.79;101079.75;5103841;27;46311;-83
2022/04/26 05:40:02;;;;;;;;;50.00;41.75;;;;;11.54;61.04;101112.03;5108432;27;45261;-83
2022/04/26 05:42:28;;;;;;;;;52.50;40.75;;;;;11.58;61.13;101121.84;5098301;27;45701;-83
2022/04/26 05:44:53;;;;;;;;;48.75;40.25;;;;;11.16;61.32;101053.63;5110955;27;45860;-83
2022/04/26 05:47:19;;;;;;;;;43.25;38.00;;;;;10.62;61.16;100961.31;5096996;27;47002;-83
2022/04/26 05:49:44;;;;;;;;;53.25;40.50;;;;;11.39;61.23;101101.84;5099745;27;45612;-84
2022/04/26 05:52:09;;;;;;;;;50.00;39.67;;;;;11.33;61.39;101076.22;5117914;27;45574;-84
2022/04/26 05:54:35;;;;;;;;;52.33;42.67;;;;;11.58;61.51;101122.75;5094313;27;45741;-84
2022/04/26 05:57:00;;;;;;;;;50.25;41.25;;;;;11.48;61.13;101093.41;5112845;27;47280;-84
2022/04/26 05:59:25;;;;;;;;;51.00;42.00;;;;;11.58;61.58;101101.69;5104311;27;45503;-84
2022/04/26 06:01:51;;;;;;;;;46.25;40.00;;;;;11.60;61.24;101091.19;5116885;27;45405;-85
2022/04/26 06:04:17;;;;;;;;;53.25;42.25;;;;;12.04;61.03;101147.22;5097450;27;45516;-84
2022/04/26 06:06:43;;;;;;;;;56.75;46.25;;;;;12.14;61.05;101157.22;5122348;27;45828;-84
2022/04/26 06:09:09;;;;;;;;;61.25;47.00;;;;;11.95;60.88;101116.19;5082798;27;45927;-84
2022/04/26 06:11:35;;;;;;;;;55.00;44.50;;;;;12.32;60.96;101151.72;5118554;27;46343;-84
2022/04/26 06:14:02;;;;;;;;;62.25;48.75;;;;;12.43;60.76;101158.22;5097590;27;45675;-84
2022/04/26 06:16:28;;;;;;;;;65.00;50.00;;;;;12.34;60.47;101128.94;5104540;27;47291;-84
2022/04/26 06:18:54;;;;;;;;;63.25;47.75;;;;;12.21;60.58;101106.53;5121814;27;45566;-84
2022/04/26 06:21:19;;;;;;;;;58.75;48.25;;;;;11.79;60.55;101011.13;5142477;27;45195;-84
2022/04/26 06:23:44;;;;;;;;;61.00;48.00;;;;;12.01;60.59;101055.78;5134438;27;45314;-84
2022/04/26 06:26:10;;;;;;;;;61.50;50.25;;;;;12.42;60.63;101097.56;5135705;27;45288;-82
2022/04/26 06:28:35;;;;;;;;;68.25;52.00;;;;;12.28;59.97;101100.63;5119914;27;45172;-84
2022/04/26 06:31:00;;;;;;;;;68.33;53.00;;;;;11.97;60.00;101069.72;5119997;27;45383;-84
2022/04/26 06:33:26;;;;;;;;;64.50;51.75;;;;;11.80;59.83;101057.66;5119464;27;45206;-83
2022/04/26 06:35:52;;;;;;;;;65.25;51.00;;;;;11.60;60.28;101038.53;5114446;27;47125;-84
2022/04/26 06:38:17;;;;;;;;;66.50;50.25;;;;;11.67;60.50;101069.50;5114608;27;45343;-83
2022/04/26 06:40:43;;;;;;;;;59.50;47.50;;;;;12.01;60.54;101111.13;5122962;27;45194;-84
2022/04/26 06:43:11;;;;;;;;;65.50;51.75;;;;;11.92;60.87;101104.63;5139896;27;45045;-84
2022/04/26 06:45:36;;;;;;;;;67.25;50.25;;;;;12.11;60.97;101130.78;5130625;27;46352;-84
2022/04/26 06:48:09;;;;;;;;;63.25;49.75;;;;;12.36;60.96;101179.94;5124366;27;45304;-84
2022/04/26 06:50:35;;;;;;;;;66.75;52.75;;;;;12.17;60.52;101137.97;5124070;27;45233;-83
2022/04/26 06:53:00;;;;;;;;;67.50;50.00;;;;;12.16;60.88;101139.72;5125397;27;45506;-84
2022/04/26 06:55:26;;;;;;;;;64.00;50.75;;;;;12.02;60.70;101109.38;5138476;27;45889;-84
2022/04/26 06:57:51;;;;;;;;;65.25;50.25;;;;;11.53;60.58;101012.88;5118400;27;45417;-84
2022/04/26 07:00:17;;;;;;;;;67.00;53.00;;;;;11.88;60.68;101090.47;5089092;27;46008;-84
2022/04/26 07:02:42;;;;;;;;;62.75;50.00;;;;;12.00;60.76;101100.53;5096670;27;45214;-84
2022/04/26 07:05:08;;;;;;;;;62.75;50.00;;;;;12.49;60.78;101194.44;5111826;27;47521;-84
2022/04/26 07:07:34;;;;;;;;;63.00;50.75;;;;;12.28;60.47;101140.16;5117508;27;45037;-85
2022/04/26 07:09:59;;;;;;;;;62.00;49.50;;;;;11.74;60.13;101050.47;5119699;27;45187;-84
2022/04/26 07:12:24;;;;;;;;;63.00;51.00;;;;;11.90;60.17;101072.09;5134254;27;45032;-84
2022/04/26 07:14:50;;;;;;;;;63.00;50.00;;;;;12.07;60.20;101086.75;5120205;27;47079;-85
2022/04/26 07:17:17;;;;;;;;;66.33;51.00;;;;;11.90;60.13;101064.19;5115736;27;45248;-84
2022/04/26 07:19:42;;;;;;;;;67.50;52.25;;;;;12.30;60.38;101135.81;5115091;27;45092;-84
2022/04/26 07:22:09;;;;;;;;;63.25;48.25;;;;;12.51;59.97;101154.13;5116892;27;45256;-83
2022/04/26 07:24:35;;;;;;;;;67.50;51.25;;;;;12.43;60.11;101128.34;5106015;27;45837;-83
2022/04/26 07:27:03;;;;;;;;;62.50;50.25;;;;;12.18;59.89;101080.09;5096357;27;45152;-83
2022/04/26 07:29:31;;;;;;;;;68.50;52.25;;;;;11.77;60.02;100995.28;5094292;27;45056;-84
2022/04/26 07:31:57;;;;;;;;;64.75;49.75;;;;;12.58;60.09;101108.63;5085605;27;45133;-84
2022/04/26 07:34:23;;;;;;;;;63.00;50.75;;;;;12.46;59.71;101080.97;5107329;27;48044;-84
2022/04/26 07:36:51;;;;;;;;;66.75;50.25;;;;;12.51;59.51;101047.75;5102087;27;45552;-85
2022/04/26 07:39:17;;;;;;;;;64.00;49.50;;;;;12.37;58.79;101021.84;5090338;27;45657;-85
2022/04/26 07:41:47;;;;;;;;;66.50;51.25;;;;;12.90;58.70;101124.56;5078204;27;45576;-84
2022/04/26 07:44:17;;;;;;;;;63.00;50.50;;;;;13.46;58.93;101207.28;5093565;27;46633;-85
2022/04/26 07:46:45;;;;;;;;;61.00;49.25;;;;;13.36;58.59;101169.16;5096934;27;45952;-84
2022/04/26 07:49:11;;;;;;;;;66.75;51.00;;;;;13.64;58.19;101207.84;5099993;27;45405;-85
2022/04/26 07:51:37;;;;;;;;;57.50;46.75;;;;;13.13;57.70;101131.47;5101946;27;45514;-84
2022/04/26 07:54:06;;;;;;;;;62.50;49.50;;;;;13.54;57.85;101218.06;5107387;27;45308;-84
2022/04/26 07:56:32;;;;;;;;;65.75;51.25;;;;;13.50;58.03;101218.84;5103589;27;46097;-84
2022/04/26 07:58:58;;;;;;;;;63.50;49.00;;;;;13.22;57.75;101173.13;5106816;27;45468;-84
2022/04/26 08:01:27;;;;;;;;;62.25;48.00;;;;;13.20;57.39;101163.31;5110050;27;45446;-83
2022/04/26 08:03:52;;;;;;;;;63.25;49.25;;;;;12.99;57.61;101131.88;5103788;27;47321;-85
2022/04/26 08:06:18;;;;;;;;;60.75;48.25;;;;;13.12;58.25;101168.38;5105016;27;45175;-85
2022/04/26 08:08:43;;;;;;;;;53.50;42.75;;;;;13.26;57.07;101190.84;5107156;27;45563;-84
2022/04/26 08:11:12;;;;;;;;;59.75;47.75;;;;;13.38;57.35;101212.31;5094613;27;45485;-84
2022/04/26 08:13:41;;;;;;;;;55.00;44.75;;;;;12.99;57.59;101127.50;5103844;27;45459;-84
2022/04/26 08:16:08;;;;;;;;;59.25;47.25;;;;;13.89;56.96;101235.88;5112283;27;45441;-85
2022/04/26 08:18:33;;;;;;;;;59.50;47.00;;;;;14.09;56.38;101246.13;5110799;27;45255;-84
2022/04/26 08:20:59;;;;;;;;;56.75;47.00;;;;;14.29;56.28;101246.69;5121435;27;45228;-85
2022/04/26 08:23:25;;;;;;;;;61.25;48.00;;;;;14.20;55.96;101205.91;5108944;27;46165;-83
2022/04/26 08:28:34;;;;;;;;;59.00;48.00;;;;;14.41;55.34;101179.13;5115014;27;45456;-83
2022/04/26 08:31:00;;;;;;;;;59.75;46.50;;;;;14.90;54.59;101251.84;5100734;27;45324;-84
2022/04/26 08:33:30;;;;;;;;;60.75;48.75;;;;;14.93;54.68;101261.63;5110547;27;47213;-84
2022/04/26 08:35:56;;;;;;;;;62.00;49.50;;;;;14.79;54.56;101220.69;5115634;27;45373;-84
2022/04/26 08:38:21;;;;;;;;;62.75;47.00;;;;;15.13;54.32;101254.19;5108766;27;45441;-84
2022/04/26 08:40:48;;;;;;;;;58.25;46.00;;;;;15.20;54.45;101257.00;5091902;27;46038;-84
2022/04/26 08:43:14;;;;;;;;;60.50;48.25;;;;;14.91;54.43;101192.75;5116761;27;45350;-84
2022/04/26 08:45:40;;;;;;;;;61.75;50.50;;;;;15.27;54.13;101251.84;5112415;27;45383;-84
2022/04/26 08:51:05;;;;;;;;;58.25;46.00;;;;;15.39;53.46;101255.66;5112640;27;45420;-83
2022/04/26 08:53:33;;;;;;;;;60.00;47.00;;;;;15.21;52.99;101234.03;5097521;27;46499;-84
2022/04/26 08:56:01;;;;;;;;;50.00;41.50;;;;;14.34;52.64;101111.09;5104863;27;46193;-84
2022/04/26 08:58:32;;;;;;;;;52.50;44.00;;;;;14.27;52.67;101127.63;5103829;27;45472;-84
2022/04/26 09:01:10;;;;;;;;;54.75;44.75;;;;;14.64;52.95;101198.28;5114665;27;45552;-83
2022/04/26 09:03:37;;;;;;;;;57.50;45.50;;;;;15.10;52.58;101272.63;5110093;27;47240;-84
2022/04/26 09:06:13;;;;;;;;;57.00;46.00;;;;;14.48;52.79;101171.38;5100130;27;45760;-84
2022/04/26 09:08:47;;;;;;;;;55.00;44.75;;;;;13.92;52.65;101097.66;5102550;27;45354;-84
2022/04/26 09:11:39;;;;;;;;;60.75;47.00;;;;;14.52;53.19;101195.31;5098500;27;45705;-84
2022/04/26 09:14:27;;;;;;;;;54.25;43.25;;;;;15.18;53.45;101284.31;5104359;27;47268;-84
2022/04/26 09:17:06;;;;;;;;;58.00;45.50;;;;;15.08;52.22;101245.22;5107651;27;45913;-84
2022/04/26 09:19:47;;;;;;;;;56.75;46.50;;;;;15.41;52.60;101288.38;5106210;27;46483;-84
2022/04/26 09:22:18;;;;;;;;;59.00;47.25;;;;;14.99;52.41;101200.91;5120904;27;45656;-84
2022/04/26 09:24:57;;;;;;;;;57.00;46.50;;;;;15.39;51.41;101268.03;5134632;27;46747;-84
2022/04/26 09:27:23;;;;;;;;;60.25;47.00;;;;;15.39;51.10;101302.47;5136175;27;45153;-84
2022/04/26 09:29:49;;;;;;;;;60.00;48.25;;;;;14.40;51.26;101157.94;5117829;27;45426;-84
2022/04/26 09:32:14;;;;;;;;;56.50;45.25;;;;;14.30;51.79;101170.03;5126382;27;45426;-84
2022/04/26 09:34:40;;;;;;;;;54.50;44.25;;;;;14.55;51.91;101226.25;5120946;27;47649;-84
2022/04/26 09:37:06;;;;;;;;;59.25;46.75;;;;;14.47;52.36;101199.53;5112221;27;45153;-84
2022/04/26 09:39:31;;;;;;;;;54.75;44.75;;;;;15.11;52.06;101319.41;5133689;27;45439;-84
2022/04/26 09:41:57;;;;;;;;;59.25;47.00;;;;;14.83;51.72;101278.13;5113263;27;45614;-84
2022/04/26 09:44:31;;;;;;;;;62.00;48.25;;;;;14.69;51.65;101259.25;5105509;27;47430;-84
2022/04/26 09:46:58;;;;;;;;;55.50;45.25;;;;;14.51;51.79;101225.25;5107643;27;45224;-84
2022/04/26 09:49:25;;;;;;;;;59.25;47.50;;;;;14.58;51.99;101247.47;5111140;27;45756;-84
2022/04/26 09:51:58;;;;;;;;;59.25;47.25;;;;;14.08;52.05;101135.94;5098165;27;45983;-85
2022/04/26 09:54:24;;;;;;;;;58.75;45.75;;;;;14.93;51.24;101225.47;5090713;27;47752;-83
2022/04/26 09:56:50;;;;;;;;;59.25;48.00;;;;;14.48;51.07;101137.00;5083765;27;45847;-84
2022/04/26 09:59:27;;;;;;;;;53.25;42.50;;;;;14.30;50.90;101098.63;5101366;27;45472;-84
2022/04/26 10:01:55;;;;;;;;;57.50;46.00;;;;;14.96;51.14;101214.94;5112673;27;45193;-84
2022/04/26 10:04:23;;;;;;;;;61.50;48.25;;;;;15.33;51.24;101265.25;5118143;27;47417;-84
2022/04/26 10:07:04;;;;;;;;;57.00;46.25;;;;;15.02;50.98;101192.13;5113854;27;45434;-84
2022/04/26 10:09:29;;;;;;;;;51.25;42.50;;;;;15.08;50.11;101184.34;5131424;27;45159;-84
2022/04/26 10:12:00;;;;;;;;;58.00;46.00;;;;;16.29;49.89;101335.41;5125195;27;45467;-85
2022/04/26 10:14:28;;;;;;;;;56.25;45.25;;;;;15.45;49.59;101162.19;5117008;27;47094;-84
2022/04/26 10:16:54;;;;;;;;;57.75;46.50;;;;;16.16;49.60;101260.91;5124810;27;45075;-84
2022/04/26 10:19:19;;;;;;;;;58.75;46.00;;;;;16.18;49.26;101258.28;5137992;27;45438;-85
2022/04/26 10:21:46;;;;;;;;;60.00;48.50;;;;;16.11;49.09;101245.78;5110734;27;45509;-84
2022/04/26 10:24:21;;;;;;;;;58.00;47.50;;;;;15.68;49.53;101173.31;5115499;27;47345;-85
2022/04/26 10:26:48;;;;;;;;;58.00;47.00;;;;;16.62;49.39;101330.78;5109394;27;45706;-85
2022/04/26 10:29:16;;;;;;;;;55.00;44.75;;;;;16.81;49.31;101339.13;5109561;27;45138;-85
2022/04/26 10:31:44;;;;;;;;;55.00;44.75;;;;;16.20;48.94;101216.75;5109789;27;45508;-85
2022/04/26 10:34:31;;;;;;;;;57.25;46.25;;;;;16.94;47.71;101343.78;5113294;27;45972;-84
2022/04/26 10:37:01;;;;;;;;;58.50;47.25;;;;;16.86;47.84;101342.78;5122005;27;45861;-85
2022/04/26 10:39:50;;;;;;;;;55.50;45.25;;;;;16.59;48.36;101303.28;5133043;27;45451;-85
2022/04/26 10:42:16;;;;;;;;;54.75;44.75;;;;;16.95;47.97;101341.19;5104168;27;45088;-85
2022/04/26 10:44:45;;;;;;;;;56.25;45.00;;;;;17.03;47.84;101342.19;5104293;27;47270;-84
2022/04/26 10:47:18;;;;;;;;;58.75;46.25;;;;;16.99;47.88;101336.81;5103261;27;45289;-85
2022/04/26 10:49:45;;;;;;;;;59.50;46.25;;;;;16.96;47.87;101326.16;5135809;27;45378;-84
2022/04/26 10:52:25;;;;;;;;;58.75;46.00;;;;;17.15;48.18;101341.53;5118957;27;45151;-84
2022/04/26 10:57:26;;;;;;;;;57.25;46.00;;;;;16.63;47.31;101278.59;5130052;27;45262;-84
2022/04/26 10:59:56;;;;;;;;;55.50;44.50;;;;;16.27;47.98;101252.28;5125245;27;45081;-84
2022/04/26 11:02:24;;;;;;;;;50.25;40.50;;;;;16.18;48.60;101226.47;5119405;27;45430;-85
2022/04/26 11:05:05;;;;;;;;;55.75;45.75;;;;;16.51;47.62;101247.44;5117842;27;47187;-84
2022/04/26 11:07:31;;;;;;;;;55.00;43.00;;;;;16.95;47.86;101282.75;5115035;27;45492;-85
2022/04/26 11:10:00;;;;;;;;;54.75;45.00;;;;;16.76;47.31;101212.53;5122836;27;45063;-84
2022/04/26 11:12:32;;;;;;;;;52.50;43.25;;;;;17.74;46.65;101336.31;5103626;27;45281;-85
2022/04/26 11:15:11;;;;;;;;;53.25;43.75;;;;;18.01;46.61;101342.88;5120960;27;45926;-84
2022/04/26 11:17:38;;;;;;;;;55.25;44.50;;;;;18.11;46.12;101341.25;5123503;27;45672;-84
2022/04/26 11:20:05;;;;;;;;;50.00;40.00;;;;;18.18;45.60;101333.38;5102722;27;45358;-84
2022/04/26 11:22:30;;;;;;;;;55.75;45.25;;;;;17.82;45.43;101279.69;5086875;27;45717;-85
2022/04/26 11:28:09;;;;;;;;;53.75;44.75;;;;;17.93;45.32;101304.63;5103226;27;45511;-84
2022/04/26 11:30:38;;;;;;;;;56.00;43.75;;;;;17.86;44.88;101301.00;5111991;27;45877;-85
2022/04/26 11:33:23;;;;;;;;;51.25;42.00;;;;;17.98;45.40;101346.41;5093984;27;45340;-85
2022/04/26 11:35:59;;;;;;;;;53.00;43.25;;;;;17.93;45.52;101337.47;5093795;27;46412;-84
2022/04/26 11:38:25;;;;;;;;;53.75;45.00;;;;;17.47;45.21;101256.13;5113231;27;45417;-85
2022/04/26 11:40:52;;;;;;;;;55.50;44.25;;;;;17.65;45.86;101301.56;5116021;27;45445;-85
2022/04/26 11:43:24;;;;;;;;;52.00;44.00;;;;;17.48;45.36;101255.25;5111783;27;45463;-84
2022/04/26 11:45:53;;;;;;;;;51.00;41.00;;;;;18.10;45.21;101344.78;5093454;27;48276;-84
2022/04/26 11:48:26;;;;;;;;;49.75;41.00;;;;;17.71;45.32;101259.13;5103495;27;45679;-85
2022/04/26 11:50:54;;;;;;;;;53.00;42.25;;;;;18.11;44.75;101326.16;5117284;27;45424;-82
2022/04/26 11:53:29;;;;;;;;;50.50;41.50;;;;;18.18;44.36;101320.06;5094647;27;45463;-83
2022/04/26 11:55:56;;;;;;;;;54.75;44.25;;;;;18.28;44.26;101332.63;5091668;27;47244;-82
2022/04/26 11:58:34;;;;;;;;;50.75;42.00;;;;;18.16;44.61;101302.28;5100356;27;45737;-83
2022/04/26 12:01:11;;;;;;;;;52.75;43.25;;;;;18.19;44.32;101302.34;5112986;27;45667;-83
2022/04/26 12:03:57;;;;;;;;;49.25;41.25;;;;;18.49;44.39;101339.06;5112106;27;45504;-83
2022/04/26 12:06:28;;;;;;;;;48.00;39.75;;;;;18.31;43.92;101291.81;5093762;27;47298;-83
2022/04/26 12:08:56;;;;;;;;;47.00;39.25;;;;;18.53;43.52;101306.28;5092238;27;45839;-83
2022/04/26 12:11:27;;;;;;;;;45.50;38.00;;;;;18.48;44.06;101300.91;5077784;27;45512;-83
2022/04/26 12:14:16;;;;;;;;;48.25;40.25;;;;;18.40;44.00;101281.28;5094317;27;45930;-83
2022/04/26 12:16:47;;;;;;;;;48.50;40.75;;;;;18.74;43.67;101342.94;5096375;27;48155;-83
2022/04/26 12:19:12;;;;;;;;;52.25;41.00;;;;;18.66;44.29;101340.13;5102937;27;45386;-83
2022/04/26 12:21:48;;;;;;;;;52.75;44.00;;;;;18.62;43.85;101342.75;5089611;27;45476;-83
2022/04/26 12:24:22;;;;;;;;;51.25;42.50;;;;;18.55;43.29;101344.47;5113524;27;45867;-84
2022/04/26 12:27:04;;;;;;;;;52.25;41.00;;;;;18.50;43.95;101344.41;5072950;27;47106;-84
2022/04/26 12:29:35;;;;;;;;;49.00;38.75;;;;;18.61;43.99;101341.84;5091478;27;45963;-84
2022/04/26 12:32:05;;;;;;;;;50.00;41.00;;;;;18.58;43.65;101301.03;5074905;27;45473;-84
2022/04/26 12:34:31;;;;;;;;;50.00;40.75;;;;;18.68;43.53;101308.22;5090663;27;45527;-83
2022/04/26 12:36:59;;;;;;;;;47.25;39.25;;;;;19.10;43.25;101344.16;5101156;27;46163;-84
2022/04/26 12:39:43;;;;;;;;;51.75;42.00;;;;;18.35;42.98;101207.59;5099489;27;45662;-83
2022/04/26 12:42:10;;;;;;;;;47.00;39.50;;;;;19.08;42.73;101338.84;5105917;27;45834;-85
2022/04/26 12:44:39;;;;;;;;;48.25;41.00;;;;;19.41;44.68;101347.97;5111824;27;45556;-83
2022/04/26 12:52:49;;;;;;;;;52.00;42.00;;;;;20.25;41.48;101237.34;5104672;27;45590;-84
2022/04/26 12:55:28;;;;;;;;;49.50;40.75;;;;;21.19;41.08;101325.69;5112334;27;45515;-83
2022/04/26 12:57:55;;;;;;;;;48.75;41.25;;;;;21.03;40.76;101215.19;5093825;27;48075;-83
2022/04/26 13:00:22;;;;;;;;;50.25;41.00;;;;;21.80;38.88;101186.50;5100063;27;45625;-83
2022/04/26 13:02:53;;;;;;;;;51.25;42.50;;;;;21.34;38.52;101141.22;5102087;27;45276;-84
2022/04/26 13:05:20;;;;;;;;;50.25;41.25;;;;;21.12;38.71;101205.38;5093780;27;45562;-82
2022/04/26 13:07:47;;;;;;;;;43.75;37.50;;;;;20.81;39.07;101260.63;5110674;27;45609;-84
2022/04/26 13:10:14;;;;;;;;;47.25;38.50;;;;;20.46;39.67;101300.59;5077274;27;45954;-83
2022/04/26 13:12:40;;;;;;;;;47.50;36.50;;;;;19.41;40.46;101188.97;5090510;27;45524;-84
2022/04/26 13:15:08;;;;;;;;;45.75;39.50;;;;;20.60;41.56;101327.38;5072831;27;46084;-84
2022/04/26 13:17:36;;;;;;;;;45.75;38.00;;;;;22.86;39.55;101206.38;5090275;27;46217;-84
2022/04/26 13:20:06;;;;;;;;;42.00;36.00;;;;;26.14;38.00;101261.59;5090366;27;45252;-83
2022/04/26 13:22:35;;;;;;;;;41.25;34.75;;;;;27.85;33.40;101296.16;5111911;27;45492;-84
2022/04/26 13:25:05;;;;;;;;;40.75;34.50;;;;;28.74;32.36;101265.50;5111251;27;45445;-84
2022/04/26 13:27:31;;;;;;;;;44.25;37.25;;;;;28.04;30.99;101197.41;5095285;27;48844;-84
2022/04/26 13:29:57;;;;;;;;;40.50;34.25;;;;;26.83;31.18;101222.28;5101766;27;45786;-84
2022/04/26 13:32:23;;;;;;;;;39.00;33.75;;;;;25.65;31.64;101246.41;5072564;27;45391;-84
2022/04/26 13:34:48;;;;;;;;;39.00;32.25;;;;;24.60;32.81;101267.06;5074188;27;45851;-84
2022/04/26 13:37:15;;;;;;;;;37.75;33.75;;;;;23.22;33.69;101174.78;5096155;27;48065;-84
2022/04/26 13:39:43;;;;;;;;;38.25;34.75;;;;;23.13;34.02;101191.84;5109676;27;45204;-84
2022/04/26 13:42:09;;;;;;;;;39.50;34.00;;;;;23.29;34.21;101218.50;5108355;27;45281;-84
2022/04/26 13:44:35;;;;;;;;;33.25;31.25;;;;;23.08;35.03;101247.31;5092206;27;45832;-83
2022/04/26 13:47:02;;;;;;;;;40.50;36.00;;;;;22.85;35.22;101273.38;5097113;27;47532;-84
2022/04/26 13:49:28;;;;;;;;;38.50;34.50;;;;;22.62;35.71;101273.56;5118802;27;45690;-82
2022/04/26 13:51:53;;;;;;;;;34.00;31.00;;;;;22.29;34.90;101278.19;5115044;27;45979;-83
2022/04/26 13:54:18;;;;;;;;;30.75;30.50;;;;;22.30;35.47;101255.88;5108681;27;45524;-83
2022/04/26 13:56:45;;;;;;;;;32.25;29.50;;;;;23.58;35.05;101287.97;5107690;27;48147;-84
2022/04/26 13:59:10;;;;;;;;;29.50;28.50;;;;;24.93;34.17;101211.88;5097602;27;45872;-83
2022/04/26 14:01:36;;;;;;;;;32.75;30.75;;;;;26.27;33.04;101278.41;5109697;27;45473;-84
2022/04/26 14:04:01;;;;;;;;;27.50;27.25;;;;;27.43;31.56;101221.63;5115985;27;45460;-84
2022/04/26 14:06:26;;;;;;;;;29.50;28.50;;;;;26.93;29.87;101133.91;5110968;27;47312;-83
2022/04/26 14:08:52;;;;;;;;;30.00;28.25;;;;;27.32;29.85;101263.34;5110182;27;45091;-84
2022/04/26 14:11:18;;;;;;;;;31.25;29.75;;;;;26.06;30.75;101141.44;5118040;27;45694;-85
2022/04/26 14:21:57;;;;;;;;;28.75;27.50;;;;;22.78;33.50;101243.06;5129035;27;45404;-84
2022/04/26 14:24:22;;;;;;;;;27.00;26.75;;;;;22.37;33.75;101216.56;5105811;27;45489;-83
2022/04/26 14:26:49;;;;;;;;;27.75;26.50;;;;;22.81;34.08;101239.47;5134071;27;45742;-84
2022/04/26 14:29:15;;;;;;;;;29.75;28.75;;;;;25.39;33.37;101246.94;5138823;27;45692;-83
2022/04/26 14:31:41;;;;;;;;;35.50;33.00;;;;;27.82;30.31;101237.66;5134656;27;45355;-84
2022/04/26 14:34:07;;;;;;;;;31.00;30.25;;;;;27.14;28.99;101191.84;5137489;27;45081;-84
2022/04/26 14:36:32;;;;;;;;;29.25;28.50;;;;;26.08;29.92;101228.53;5137398;27;45628;-84
2022/04/26 14:38:57;;;;;;;;;26.50;25.75;;;;;25.16;31.23;101225.81;5132082;27;46226;-84
2022/04/26 14:41:23;;;;;;;;;32.25;29.00;;;;;24.64;31.41;101233.84;5112100;27;45587;-84
2022/04/26 14:43:48;;;;;;;;;31.00;29.75;;;;;24.11;31.74;101233.69;5136735;27;45275;-85
2022/04/26 14:46:13;;;;;;;;;30.50;27.75;;;;;25.02;32.39;101243.94;5119472;27;47492;-84
2022/04/26 14:48:39;;;;;;;;;27.00;25.75;;;;;26.35;31.07;101265.63;5119537;27;45760;-83
2022/04/26 14:51:05;;;;;;;;;28.25;27.25;;;;;26.48;30.79;101244.72;5124304;27;45302;-84
2022/04/26 14:53:30;;;;;;;;;25.50;24.75;;;;;25.73;30.28;101196.00;5139036;27;45311;-84
2022/04/26 14:55:58;;;;;;;;;31.50;28.00;;;;;25.17;31.20;101215.94;5133661;27;45824;-84
2022/04/26 14:58:25;;;;;;;;;27.50;26.75;;;;;24.56;30.96;101250.09;5120409;27;45866;-83
2022/04/26 15:00:51;;;;;;;;;29.25;28.50;;;;;23.52;31.91;101196.81;5122325;27;45213;-84
2022/04/26 15:03:16;;;;;;;;;27.00;25.75;;;;;22.99;32.83;101219.69;5124639;27;45558;-84
2022/04/26 15:05:42;;;;;;;;;22.75;22.25;;;;;22.79;33.43;101282.34;5105036;27;47698;-84
2022/04/26 15:10:52;;;;;;;;;24.25;23.75;;;;;21.76;34.70;101265.00;5126525;27;45643;-84
2022/04/26 15:18:45;;;;;;;;;25.25;25.25;;;;;19.69;36.52;101104.66;5121919;27;45503;-83
2022/04/26 15:21:10;;;;;;;;;26.00;24.50;;;;;20.10;36.60;101216.84;5110277;27;45653;-82
2022/04/26 15:23:36;;;;;;;;;29.25;26.25;;;;;20.13;37.04;101245.31;5130751;27;45491;-83